Time;durP1;ratioP1;P1;durP2;ratioP2;P2;SDS_P1;SDS_P2;PMS_P1;PMS_P2;Temp;Humidity;BMP_temperature;BMP_pressure;BME280_temperature;BME280_humidity;BME280_pressure;Samples;Min_cycle;Max_cycle;Signal;HPM_P1;HPM_P2
2023/06/16 00:04:43;;;;;;;2.85;1.20;;;;;;;15.14;100.00;98366.25;15286036;19;20086;-46
2023/06/16 00:10:08;;;;;;;3.95;1.52;;;;;;;14.93;100.00;98359.78;15283422;19;20523;-47
2023/06/16 00:15:33;;;;;;;2.20;1.50;;;;;;;14.84;100.00;98364.47;15279915;19;20006;-47
2023/06/16 00:21:01;;;;;;;2.00;1.40;;;;;;;14.76;100.00;98361.88;15278752;19;20045;-49
2023/06/16 00:26:27;;;;;;;2.95;1.40;;;;;;;14.74;100.00;98353.94;15279753;19;20029;-45
2023/06/16 00:31:51;;;;;;;3.15;1.40;;;;;;;14.73;100.00;98349.56;15277231;19;20015;-48
2023/06/16 00:37:18;;;;;;;3.72;1.65;;;;;;;14.68;100.00;98351.97;15278823;19;20486;-45
2023/06/16 00:42:43;;;;;;;4.25;1.40;;;;;;;14.61;100.00;98338.31;15276814;19;20018;-44
2023/06/16 00:48:09;;;;;;;4.25;1.50;;;;;;;14.51;100.00;98350.50;15280474;19;20017;-45
2023/06/16 00:53:36;;;;;;;4.13;1.50;;;;;;;14.39;100.00;98340.13;15277558;19;20027;-45
2023/06/16 00:59:01;;;;;;;1.65;1.55;;;;;;;14.32;100.00;98342.75;14767520;19;10000638;-46
2023/06/16 01:04:27;;;;;;;1.85;1.35;;;;;;;14.29;100.00;98342.25;15273199;19;20094;-43
2023/06/16 01:10:02;;;;;;;2.10;1.40;;;;;;;14.27;100.00;98341.63;15278477;19;20027;-44
2023/06/16 01:15:30;;;;;;;1.67;1.40;;;;;;;14.24;100.00;98344.69;15272696;19;20010;-43
2023/06/16 01:21:00;;;;;;;2.67;1.45;;;;;;;14.22;100.00;98335.91;15275789;19;20015;-43
2023/06/16 01:26:29;;;;;;;2.85;1.50;;;;;;;14.14;100.00;98334.13;15281627;19;20006;-46
2023/06/16 01:31:57;;;;;;;2.58;1.60;;;;;;;14.08;100.00;98346.56;15294236;19;20015;-43
2023/06/16 01:37:22;;;;;;;3.00;1.60;;;;;;;14.04;100.00;98337.13;15283418;19;20023;-48
2023/06/16 01:42:54;;;;;;;4.05;1.70;;;;;;;14.01;100.00;98337.50;15292177;19;20027;-45
2023/06/16 01:48:19;;;;;;;4.47;1.50;;;;;;;14.00;100.00;98333.94;15291383;19;20102;-46
2023/06/16 01:53:45;;;;;;;2.55;1.70;;;;;;;13.96;100.00;98327.22;15289026;19;20010;-45
2023/06/16 01:59:13;;;;;;;3.20;1.50;;;;;;;13.96;100.00;98329.06;15287569;19;20006;-45
2023/06/16 02:04:42;;;;;;;2.47;1.70;;;;;;;13.87;100.00;98334.59;15289715;19;20033;-46
2023/06/16 02:10:08;;;;;;;1.88;1.60;;;;;;;13.75;100.00;98330.63;15282680;19;20014;-46
2023/06/16 02:15:35;;;;;;;4.43;1.85;;;;;;;13.66;100.00;98320.91;15285146;19;20026;-46
2023/06/16 02:21:02;;;;;;;5.18;1.90;;;;;;;13.65;100.00;98330.06;15285503;19;20018;-45
2023/06/16 02:26:27;;;;;;;3.17;1.75;;;;;;;13.66;100.00;98327.16;15285198;19;20015;-45
2023/06/16 02:32:00;;;;;;;3.38;1.83;;;;;;;13.68;100.00;98325.13;15291531;19;20506;-45
2023/06/16 02:37:27;;;;;;;3.17;1.80;;;;;;;13.68;100.00;98329.72;15288464;19;20015;-45
2023/06/16 02:42:52;;;;;;;3.25;1.90;;;;;;;13.63;100.00;98321.28;15280906;19;20010;-44
2023/06/16 02:48:19;;;;;;;4.43;1.90;;;;;;;13.60;100.00;98322.50;15285364;19;20010;-44
2023/06/16 02:53:45;;;;;;;3.47;1.75;;;;;;;13.58;100.00;98319.13;15288159;19;20021;-45
2023/06/16 02:59:10;;;;;;;2.50;1.80;;;;;;;13.62;100.00;98322.31;15284821;19;20016;-45
2023/06/16 03:04:37;;;;;;;2.45;2.00;;;;;;;13.67;100.00;98328.03;15284371;19;20015;-44
2023/06/16 03:10:09;;;;;;;4.82;2.00;;;;;;;13.71;100.00;98322.06;15281372;19;20018;-44
2023/06/16 03:15:57;;;;;;;1.98;1.70;;;;;;;13.75;100.00;98322.50;15275946;19;20053;-46
2023/06/16 03:21:26;;;;;;;6.38;1.83;;;;;;;13.81;100.00;98324.50;15276123;19;20031;-44
2023/06/16 03:26:51;;;;;;;3.38;1.60;;;;;;;13.89;100.00;98320.03;15281092;19;20045;-46
2023/06/16 03:32:27;;;;;;;4.20;1.65;;;;;;;13.97;100.00;98323.50;15283726;19;20097;-45
2023/06/16 03:37:54;;;;;;;2.80;1.77;;;;;;;14.04;100.00;98323.59;15280585;19;20844;-48
2023/06/16 03:43:23;;;;;;;1.93;1.50;;;;;;;14.10;100.00;98320.13;15284453;19;20015;-45
2023/06/16 03:48:48;;;;;;;2.28;1.80;;;;;;;14.15;100.00;98328.53;15275144;19;20071;-44
2023/06/16 03:54:23;;;;;;;3.95;1.60;;;;;;;14.22;100.00;98330.50;15279675;19;20030;-44
2023/06/16 03:59:48;;;;;;;2.58;1.90;;;;;;;14.25;100.00;98341.78;15282511;19;20018;-41
2023/06/16 04:05:13;;;;;;;3.28;1.70;;;;;;;14.24;100.00;98331.16;15280846;19;20018;-42
2023/06/16 04:10:43;;;;;;;2.00;1.70;;;;;;;14.22;100.00;98335.91;15284851;19;20010;-42
2023/06/16 04:16:10;;;;;;;4.00;1.80;;;;;;;14.20;100.00;98338.81;15275041;19;20034;-42
2023/06/16 04:21:36;;;;;;;4.40;1.73;;;;;;;14.17;100.00;98340.00;15272347;19;20045;-42
2023/06/16 04:27:06;;;;;;;6.45;2.13;;;;;;;14.16;100.00;98338.34;15267682;19;20010;-42
2023/06/16 04:32:32;;;;;;;2.63;1.63;;;;;;;14.20;100.00;98343.38;15281498;19;20363;-49
2023/06/16 04:38:00;;;;;;;2.90;1.80;;;;;;;14.17;100.00;98340.00;15284345;19;20018;-42
2023/06/16 04:43:28;;;;;;;2.53;1.77;;;;;;;14.16;100.00;98343.78;15295720;19;20015;-42
2023/06/16 04:48:53;;;;;;;2.95;1.85;;;;;;;14.15;100.00;98342.09;15286512;19;20755;-42
2023/06/16 04:54:19;;;;;;;4.68;1.90;;;;;;;14.18;100.00;98338.97;15274639;19;20018;-42
2023/06/16 04:59:46;;;;;;;3.33;1.92;;;;;;;14.24;100.00;98347.41;15273165;19;20090;-42
2023/06/16 05:05:12;;;;;;;1.92;1.40;;;;;;;14.30;100.00;98352.91;15277668;19;20420;-42
2023/06/16 05:10:37;;;;;;;2.45;1.65;;;;;;;14.44;100.00;98347.69;15279906;19;20031;-43
2023/06/16 05:16:06;;;;;;;5.07;1.60;;;;;;;14.61;100.00;98348.31;15275520;19;20471;-42
2023/06/16 05:21:31;;;;;;;4.00;1.50;;;;;;;14.71;100.00;98345.31;15274624;19;20517;-42
2023/06/16 05:26:56;;;;;;;5.57;1.70;;;;;;;14.86;100.00;98342.59;15273826;19;20207;-43
2023/06/16 05:32:23;;;;;;;2.25;1.48;;;;;;;14.99;100.00;98347.31;15273206;19;20463;-42
2023/06/16 05:37:49;;;;;;;3.05;1.70;;;;;;;15.12;100.00;98354.75;15276280;19;20022;-41
2023/06/16 05:43:14;;;;;;;3.40;1.60;;;;;;;15.22;100.00;98353.41;15276191;19;20040;-41
2023/06/16 05:48:41;;;;;;;2.03;1.50;;;;;;;15.37;100.00;98356.06;15275722;19;20089;-42
2023/06/16 05:54:14;;;;;;;2.83;1.50;;;;;;;15.50;100.00;98349.94;15260759;19;20070;-44
2023/06/16 05:59:39;;;;;;;2.42;1.50;;;;;;;15.65;100.00;98354.44;15267563;19;20384;-46
2023/06/16 06:05:06;;;;;;;1.40;1.30;;;;;;;15.80;100.00;98357.09;15272660;19;20077;-46
2023/06/16 06:10:31;;;;;;;3.40;1.40;;;;;;;15.93;100.00;98359.94;15277112;19;20046;-45
2023/06/16 06:15:56;;;;;;;2.85;1.40;;;;;;;16.10;100.00;98365.06;15287646;19;20035;-47
2023/06/16 06:21:24;;;;;;;3.67;1.30;;;;;;;16.24;100.00;98368.69;15288657;19;20018;-46
2023/06/16 06:26:48;;;;;;;4.05;1.52;;;;;;;16.35;100.00;98373.56;15281023;19;20009;-47
2023/06/16 06:32:13;;;;;;;3.58;1.48;;;;;;;16.42;100.00;98373.63;15290153;19;20009;-44
2023/06/16 06:37:41;;;;;;;2.30;1.33;;;;;;;16.42;100.00;98379.06;15282895;19;20018;-44
2023/06/16 06:43:06;;;;;;;4.55;1.60;;;;;;;16.52;100.00;98395.00;15285778;19;20010;-42
2023/06/16 06:48:42;;;;;;;3.45;1.40;;;;;;;16.52;100.00;98412.19;15286084;19;20038;-44
2023/06/16 06:54:16;;;;;;;4.90;1.40;;;;;;;16.56;100.00;98402.56;15284256;19;20023;-45
2023/06/16 06:59:43;;;;;;;4.43;1.45;;;;;;;16.71;100.00;98398.88;15275953;19;20021;-42
2023/06/16 07:05:08;;;;;;;3.00;1.45;;;;;;;16.87;100.00;98398.56;15283620;19;20014;-44
2023/06/16 07:10:36;;;;;;;4.28;1.30;;;;;;;17.02;100.00;98411.19;15281177;19;20019;-42
2023/06/16 07:16:00;;;;;;;3.53;1.30;;;;;;;17.12;100.00;98411.63;15283743;19;20346;-46
2023/06/16 07:21:28;;;;;;;2.03;1.20;;;;;;;17.01;100.00;98423.97;15281782;19;20020;-46
2023/06/16 07:26:55;;;;;;;2.30;1.30;;;;;;;17.10;100.00;98430.09;15284078;19;20025;-42
2023/06/16 07:32:20;;;;;;;1.42;1.17;;;;;;;17.10;100.00;98440.97;15282938;19;20085;-43
2023/06/16 07:37:44;;;;;;;4.43;1.20;;;;;;;16.97;100.00;98439.00;15284225;19;20014;-47
2023/06/16 07:43:12;;;;;;;3.25;1.30;;;;;;;16.77;100.00;98438.88;15276515;19;20094;-45
2023/06/16 07:48:37;;;;;;;2.05;1.13;;;;;;;16.66;100.00;98434.00;15285473;19;20014;-43
2023/06/16 07:54:02;;;;;;;2.25;1.27;;;;;;;16.63;100.00;98444.25;15280910;19;20018;-43
2023/06/16 07:59:29;;;;;;;4.05;1.38;;;;;;;16.56;100.00;98443.38;15280319;19;20028;-44
2023/06/16 08:04:55;;;;;;;1.88;1.30;;;;;;;16.46;100.00;98445.59;15273967;19;20466;-43
2023/06/16 08:10:21;;;;;;;2.85;1.40;;;;;;;16.55;100.00;98449.03;15281765;19;20018;-44
2023/06/16 08:15:56;;;;;;;1.98;1.10;;;;;;;16.55;100.00;98454.47;15279740;19;20477;-42
2023/06/16 08:21:21;;;;;;;3.03;1.23;;;;;;;16.39;100.00;98456.44;15280521;19;20097;-43
2023/06/16 08:26:47;;;;;;;1.52;1.33;;;;;;;16.10;100.00;98455.59;15277628;19;20639;-45
2023/06/16 08:32:14;;;;;;;1.75;1.30;;;;;;;15.85;100.00;98466.00;15280069;19;20018;-42
2023/06/16 08:37:39;;;;;;;2.03;1.30;;;;;;;15.39;100.00;98476.16;15274817;19;20014;-42
2023/06/16 08:43:08;;;;;;;4.60;1.75;;;;;;;15.33;100.00;98476.94;15270976;19;20025;-42
2023/06/16 08:48:35;;;;;;;3.17;1.50;;;;;;;15.16;100.00;98486.31;15278306;19;20018;-42
2023/06/16 08:54:12;;;;;;;2.40;1.48;;;;;;;14.98;100.00;98490.28;15278145;19;20070;-44
2023/06/16 08:59:40;;;;;;;1.73;1.48;;;;;;;14.89;100.00;98504.94;15276846;19;20014;-43
2023/06/16 09:05:07;;;;;;;2.88;1.60;;;;;;;14.76;100.00;98517.28;15278004;19;20022;-43
2023/06/16 09:10:32;;;;;;;2.78;1.40;;;;;;;14.75;100.00;98521.06;15271674;19;20045;-45
2023/06/16 09:15:59;;;;;;;1.40;1.30;;;;;;;14.79;100.00;98526.94;15269383;19;20475;-43
2023/06/16 09:21:27;;;;;;;1.40;1.10;;;;;;;14.90;100.00;98520.19;15275313;19;20105;-42
2023/06/16 09:26:59;;;;;;;1.63;1.15;;;;;;;14.93;100.00;98517.94;15273014;19;20018;-42
2023/06/16 09:32:24;;;;;;;1.15;0.85;;;;;;;15.04;100.00;98519.34;15277340;19;20010;-46
2023/06/16 09:37:52;;;;;;;2.28;0.93;;;;;;;15.06;100.00;98516.44;15277841;19;20018;-44
2023/06/16 09:43:17;;;;;;;0.90;0.80;;;;;;;15.21;100.00;98513.75;15268728;19;20021;-44
2023/06/16 09:48:42;;;;;;;0.68;0.68;;;;;;;15.36;100.00;98514.53;15283656;19;20086;-43
2023/06/16 09:54:10;;;;;;;0.65;0.52;;;;;;;15.54;100.00;98502.44;15290493;19;20024;-43
2023/06/16 09:59:36;;;;;;;2.13;0.50;;;;;;;15.82;100.00;98496.25;15289432;19;20086;-44
2023/06/16 10:05:05;;;;;;;2.22;0.68;;;;;;;16.09;100.00;98489.25;15287411;19;20021;-42
2023/06/16 10:10:33;;;;;;;0.55;0.55;;;;;;;16.25;100.00;98485.41;15292403;19;20010;-47
2023/06/16 10:16:02;;;;;;;1.30;0.50;;;;;;;16.55;100.00;98477.03;15281046;19;20478;-48
2023/06/16 10:21:27;;;;;;;0.57;0.50;;;;;;;16.70;100.00;98473.38;15284280;19;20017;-44
2023/06/16 10:26:55;;;;;;;1.17;0.38;;;;;;;16.68;100.00;98486.31;15287546;19;20015;-43
2023/06/16 10:32:21;;;;;;;0.50;0.50;;;;;;;16.46;100.00;98480.97;15290900;19;20018;-43
2023/06/16 10:37:51;;;;;;;0.75;0.60;;;;;;;16.27;100.00;98468.88;15289683;19;20014;-45
2023/06/16 10:43:32;;;;;;;1.38;0.70;;;;;;;16.03;100.00;98484.56;15280047;19;20018;-42
2023/06/16 10:49:18;;;;;;;0.97;0.77;;;;;;;15.76;100.00;98502.47;15282797;19;20082;-42
2023/06/16 10:54:54;;;;;;;0.60;0.60;;;;;;;15.61;100.00;98507.94;15282000;19;20647;-42
2023/06/16 11:00:27;;;;;;;1.10;0.80;;;;;;;15.50;100.00;98507.41;15288866;19;20417;-42
2023/06/16 11:05:51;;;;;;;0.70;0.70;;;;;;;15.58;100.00;98509.19;15285114;19;20394;-43
2023/06/16 11:11:16;;;;;;;2.22;0.90;;;;;;;15.89;100.00;98513.50;15289140;19;20741;-43
2023/06/16 11:16:43;;;;;;;1.45;0.70;;;;;;;16.14;100.00;98499.53;15277899;19;20015;-43
2023/06/16 11:22:08;;;;;;;2.15;0.82;;;;;;;16.39;100.00;98494.50;15284068;19;20021;-43
2023/06/16 11:27:34;;;;;;;1.58;0.77;;;;;;;16.62;100.00;98480.66;15282041;19;20351;-42
2023/06/16 11:33:03;;;;;;;1.08;0.70;;;;;;;16.98;100.00;98480.69;15283719;19;20101;-42
2023/06/16 11:38:31;;;;;;;1.42;0.80;;;;;;;17.23;100.00;98472.84;15285067;19;20011;-43
2023/06/16 11:43:57;;;;;;;1.45;1.10;;;;;;;17.57;100.00;98462.91;15280283;19;20013;-44
2023/06/16 11:49:24;;;;;;;2.53;0.82;;;;;;;17.92;100.00;98453.75;15277348;19;20020;-43
2023/06/16 11:55:00;;;;;;;2.42;0.90;;;;;;;18.19;100.00;98451.91;15282292;19;20403;-47
2023/06/16 12:00:26;;;;;;;2.92;0.90;;;;;;;18.36;100.00;98452.31;15278663;19;20039;-44
2023/06/16 12:05:56;;;;;;;2.33;0.85;;;;;;;18.57;100.00;98455.84;15280649;19;20090;-43
2023/06/16 12:11:28;;;;;;;1.60;0.90;;;;;;;18.35;100.00;98445.16;15281505;19;20773;-43
2023/06/16 12:16:53;;;;;;;1.80;0.90;;;;;;;18.37;100.00;98445.81;15279097;19;20022;-44
2023/06/16 12:22:21;;;;;;;0.82;0.68;;;;;;;18.24;100.00;98448.53;15274599;19;20010;-47
2023/06/16 12:27:46;;;;;;;1.02;0.90;;;;;;;18.40;100.00;98445.38;15281676;19;20021;-45
2023/06/16 12:33:12;;;;;;;1.30;0.85;;;;;;;18.86;100.00;98440.03;15272375;19;20014;-45
2023/06/16 12:38:42;;;;;;;1.23;0.90;;;;;;;19.21;100.00;98429.63;15282389;19;20018;-43
2023/06/16 12:44:08;;;;;;;1.10;0.93;;;;;;;19.06;100.00;98429.91;15275139;19;20523;-44
2023/06/16 12:49:32;;;;;;;1.00;0.85;;;;;;;19.00;100.00;98438.13;15276851;19;20014;-46
2023/06/16 12:55:08;;;;;;;1.50;1.00;;;;;;;19.00;100.00;98428.03;15274588;19;20062;-50
2023/06/16 13:00:36;;;;;;;1.40;0.93;;;;;;;18.78;100.00;98441.94;15277636;19;20538;-46
2023/06/16 13:06:02;;;;;;;1.77;1.00;;;;;;;18.42;100.00;98448.72;15274934;19;20460;-51
2023/06/16 13:11:30;;;;;;;1.27;1.10;;;;;;;17.92;100.00;98451.84;15277550;19;20035;-47
2023/06/16 13:16:55;;;;;;;1.70;1.00;;;;;;;17.63;100.00;98461.22;15272569;19;20021;-48
2023/06/16 13:22:20;;;;;;;0.98;0.90;;;;;;;17.52;100.00;98458.06;15278560;19;20011;-42
2023/06/16 13:27:47;;;;;;;1.90;0.95;;;;;;;17.40;100.00;98454.25;15285466;19;20014;-51
2023/06/16 13:33:12;;;;;;;1.50;1.05;;;;;;;17.54;100.00;98447.81;15289125;19;20011;-44
2023/06/16 13:38:37;;;;;;;0.88;0.88;;;;;;;17.74;100.00;98436.09;15296201;19;20017;-48
2023/06/16 13:44:05;;;;;;;1.58;0.98;;;;;;;18.14;100.00;98419.81;15289143;19;20006;-47
2023/06/16 13:49:29;;;;;;;1.33;0.90;;;;;;;18.71;100.00;98427.47;15293106;19;20016;-41
2023/06/16 13:54:54;;;;;;;2.30;0.90;;;;;;;18.83;100.00;98413.16;15289312;19;20022;-42
2023/06/16 14:00:23;;;;;;;4.28;1.00;;;;;;;19.06;100.00;98399.03;15285249;19;20054;-49
2023/06/16 14:05:48;;;;;;;0.95;0.82;;;;;;;19.19;100.00;98396.22;15283708;19;22056;-46
2023/06/16 14:11:12;;;;;;;0.80;0.70;;;;;;;19.68;100.00;98388.38;15290716;19;20014;-43
2023/06/16 14:16:40;;;;;;;0.70;0.70;;;;;;;20.05;100.00;98378.66;15285817;19;20089;-45
2023/06/16 14:22:04;;;;;;;0.80;0.70;;;;;;;20.62;100.00;98373.88;15287923;19;20025;-46
2023/06/16 14:27:30;;;;;;;1.20;0.60;;;;;;;20.47;100.00;98382.44;15290876;19;20026;-46
2023/06/16 14:32:57;;;;;;;3.05;0.70;;;;;;;20.43;100.00;98375.75;15284656;19;20089;-46
2023/06/16 14:38:24;;;;;;;1.25;0.80;;;;;;;20.66;100.00;98359.72;15285305;19;20021;-45
2023/06/16 14:43:48;;;;;;;3.40;0.70;;;;;;;20.53;100.00;98364.28;15287633;19;20014;-44
2023/06/16 14:49:16;;;;;;;0.75;0.75;;;;;;;20.26;100.00;98364.56;15289144;19;20020;-46
2023/06/16 14:54:41;;;;;;;0.82;0.68;;;;;;;20.12;100.00;98358.38;15284793;19;20024;-46
2023/06/16 15:00:08;;;;;;;0.98;0.80;;;;;;;19.87;100.00;98361.13;15286537;19;20042;-43
2023/06/16 15:05:35;;;;;;;0.88;0.70;;;;;;;19.70;100.00;98358.91;15276656;19;20028;-45
2023/06/16 15:11:00;;;;;;;1.55;0.80;;;;;;;19.61;100.00;98354.78;15283384;19;20028;-44
2023/06/16 15:16:25;;;;;;;0.80;0.80;;;;;;;19.56;100.00;98343.69;15281590;19;20086;-48
2023/06/16 15:21:53;;;;;;;0.60;0.60;;;;;;;19.65;100.00;98353.28;15281212;19;21389;-48
2023/06/16 15:27:17;;;;;;;1.05;0.70;;;;;;;19.76;100.00;98353.63;15277452;19;20668;-49
2023/06/16 15:32:42;;;;;;;2.08;0.90;;;;;;;19.81;100.00;98345.59;15283707;19;20010;-42
2023/06/16 15:38:10;;;;;;;0.63;0.63;;;;;;;20.35;100.00;98325.97;15278849;19;20574;-49
2023/06/16 15:43:35;;;;;;;1.23;0.80;;;;;;;20.87;100.00;98315.50;15276340;19;20101;-42
2023/06/16 15:49:00;;;;;;;1.55;0.70;;;;;;;20.95;100.00;98303.34;15272488;19;20014;-51
2023/06/16 15:54:34;;;;;;;1.55;0.80;;;;;;;20.59;100.00;98299.56;15279923;19;20042;-46
2023/06/16 15:59:59;;;;;;;2.60;0.80;;;;;;;20.75;100.00;98292.69;15279515;19;20578;-42
2023/06/16 16:05:24;;;;;;;3.25;0.80;;;;;;;20.62;100.00;98290.91;15280446;19;20500;-45
2023/06/16 16:10:52;;;;;;;1.23;0.70;;;;;;;20.43;100.00;98298.28;15283983;19;20018;-45
2023/06/16 16:16:17;;;;;;;2.00;0.90;;;;;;;20.25;100.00;98293.66;15275564;19;20030;-42
2023/06/16 16:21:41;;;;;;;2.53;0.70;;;;;;;20.14;100.00;98303.47;15272580;19;20085;-45
2023/06/16 16:27:09;;;;;;;0.95;0.68;;;;;;;20.01;100.00;98309.88;15274109;19;20014;-49
2023/06/16 16:32:34;;;;;;;1.08;0.75;;;;;;;19.68;100.00;98311.84;15279662;19;20357;-46
2023/06/16 16:37:59;;;;;;;1.88;0.90;;;;;;;19.53;100.00;98308.63;15274517;19;20022;-42
2023/06/16 16:43:26;;;;;;;1.23;0.70;;;;;;;19.31;100.00;98313.59;15277822;19;20093;-44
2023/06/16 16:48:51;;;;;;;1.50;0.88;;;;;;;19.25;100.00;98315.31;15275179;19;20016;-43
2023/06/16 16:54:22;;;;;;;1.20;0.70;;;;;;;19.05;100.00;98302.63;15270056;19;20022;-46
2023/06/16 16:59:49;;;;;;;0.73;0.70;;;;;;;18.62;100.00;98311.44;15277737;19;20010;-45
2023/06/16 17:05:16;;;;;;;1.05;0.70;;;;;;;18.24;100.00;98314.91;15278237;19;20011;-51
2023/06/16 17:10:40;;;;;;;0.60;0.60;;;;;;;18.07;100.00;98317.25;15277838;19;20440;-44
2023/06/16 17:16:08;;;;;;;1.13;0.77;;;;;;;17.98;100.00;98312.03;15275990;19;20018;-47
2023/06/16 17:21:32;;;;;;;1.20;0.82;;;;;;;17.85;100.00;98315.56;15272452;19;20027;-51
2023/06/16 17:26:57;;;;;;;1.50;0.90;;;;;;;17.76;100.00;98325.03;15265574;19;20351;-48
2023/06/16 17:32:24;;;;;;;0.93;0.70;;;;;;;17.63;100.00;98335.91;15273987;19;20032;-49
2023/06/16 17:37:50;;;;;;;0.98;0.88;;;;;;;17.53;100.00;98334.44;15278345;19;20029;-45
2023/06/16 17:43:15;;;;;;;2.95;0.98;;;;;;;17.49;100.00;98337.81;15275264;19;20416;-48
2023/06/16 17:48:43;;;;;;;2.13;0.80;;;;;;;17.40;100.00;98327.09;15276026;19;20014;-46
2023/06/16 17:54:14;;;;;;;0.80;0.70;;;;;;;17.27;100.00;98328.97;15268110;19;20101;-42
2023/06/16 17:59:39;;;;;;;1.02;0.73;;;;;;;17.12;100.00;98329.16;15267530;19;20077;-43
2023/06/16 18:05:07;;;;;;;0.65;0.60;;;;;;;16.97;100.00;98324.72;15270817;19;20014;-48
2023/06/16 18:10:31;;;;;;;2.28;0.75;;;;;;;16.88;100.00;98328.63;15289225;19;20051;-41
2023/06/16 18:15:58;;;;;;;1.42;0.70;;;;;;;16.82;100.00;98327.56;15285043;19;20361;-43
2023/06/16 18:21:26;;;;;;;1.38;0.70;;;;;;;16.81;100.00;98325.88;15284787;19;20673;-47
2023/06/16 18:26:51;;;;;;;1.23;0.65;;;;;;;16.73;100.00;98326.09;15277003;19;20352;-51
2023/06/16 18:32:16;;;;;;;1.13;0.80;;;;;;;16.60;100.00;98327.72;15281841;19;20332;-50
2023/06/16 18:37:51;;;;;;;1.17;0.65;;;;;;;16.42;100.00;98324.69;15286660;19;20372;-50
2023/06/16 18:43:21;;;;;;;1.13;0.65;;;;;;;16.34;100.00;98312.13;15284437;19;20364;-50
2023/06/16 18:48:46;;;;;;;1.08;0.70;;;;;;;16.23;100.00;98324.38;15286626;19;20355;-41
2023/06/16 18:54:21;;;;;;;0.98;0.80;;;;;;;16.09;100.00;98312.59;15283613;19;20470;-44
2023/06/16 18:59:48;;;;;;;1.45;0.80;;;;;;;15.97;100.00;98315.00;15280324;19;20020;-42
2023/06/16 19:05:13;;;;;;;1.50;1.00;;;;;;;15.86;100.00;98311.00;15272895;19;20025;-47
2023/06/16 19:10:41;;;;;;;1.83;0.95;;;;;;;15.77;100.00;98322.16;15276749;19;20022;-50
2023/06/16 19:16:06;;;;;;;1.35;0.80;;;;;;;15.70;100.00;98320.22;15274453;19;20018;-46
2023/06/16 19:21:30;;;;;;;1.27;0.93;;;;;;;15.65;100.00;98317.28;15277885;19;20017;-43
2023/06/16 19:26:58;;;;;;;2.17;1.00;;;;;;;15.61;100.00;98320.56;15273786;19;20015;-50
2023/06/16 19:32:22;;;;;;;0.98;0.88;;;;;;;15.53;100.00;98332.41;15278317;19;20382;-46
2023/06/16 19:37:49;;;;;;;1.33;1.00;;;;;;;15.44;100.00;98339.03;15282914;19;20018;-44
2023/06/16 19:43:17;;;;;;;1.45;0.93;;;;;;;15.37;100.00;98342.50;15283340;19;20082;-48
2023/06/16 19:48:42;;;;;;;1.65;0.90;;;;;;;15.31;100.00;98347.84;15282944;19;20018;-46
2023/06/16 19:54:07;;;;;;;1.42;1.00;;;;;;;15.23;100.00;98343.41;15283144;19;20028;-44
2023/06/16 19:59:35;;;;;;;2.92;1.00;;;;;;;15.21;100.00;98346.31;15277372;19;20015;-45
2023/06/16 20:05:01;;;;;;;1.30;1.00;;;;;;;15.24;100.00;98348.66;15252384;19;20010;-42
2023/06/16 20:10:26;;;;;;;1.10;1.00;;;;;;;15.22;100.00;98336.31;15281449;19;20474;-44
2023/06/16 20:15:53;;;;;;;1.25;1.13;;;;;;;15.20;100.00;98331.06;15278483;19;20018;-43
2023/06/16 20:21:18;;;;;;;1.27;1.10;;;;;;;15.14;100.00;98336.41;15281985;19;20014;-44
2023/06/16 20:26:42;;;;;;;1.30;1.10;;;;;;;15.09;100.00;98323.44;15273838;19;20029;-44
2023/06/16 20:32:10;;;;;;;1.98;1.30;;;;;;;15.02;100.00;98320.66;15272657;19;20042;-45
2023/06/16 20:37:35;;;;;;;3.00;1.10;;;;;;;14.96;100.00;98321.44;15275913;19;20029;-45
2023/06/16 20:43:01;;;;;;;1.95;1.15;;;;;;;14.85;100.00;98319.22;15280428;19;20022;-43
2023/06/16 20:48:29;;;;;;;1.70;1.17;;;;;;;14.75;100.00;98320.38;15280813;19;20916;-44
2023/06/16 20:53:54;;;;;;;1.10;1.00;;;;;;;14.58;100.00;98324.28;15277144;19;20078;-45
2023/06/16 20:59:27;;;;;;;1.52;1.20;;;;;;;14.47;100.00;98325.59;15280678;19;20038;-44
2023/06/16 21:04:56;;;;;;;2.00;1.30;;;;;;;14.39;100.00;98328.41;15270742;19;20375;-43
2023/06/16 21:10:22;;;;;;;2.13;1.20;;;;;;;14.32;100.00;98336.47;15278378;19;20007;-42
2023/06/16 21:15:47;;;;;;;2.15;1.27;;;;;;;14.21;100.00;98334.22;15278216;19;20021;-47
2023/06/16 21:21:14;;;;;;;1.58;1.13;;;;;;;14.16;100.00;98340.22;15279750;19;20019;-44
2023/06/16 21:26:38;;;;;;;1.42;1.30;;;;;;;14.16;100.00;98342.91;15274293;19;20093;-48
2023/06/16 21:32:03;;;;;;;1.50;1.33;;;;;;;14.13;100.00;98346.84;15279824;19;20014;-47
2023/06/16 21:37:30;;;;;;;2.92;1.33;;;;;;;14.14;100.00;98347.69;15267272;19;20014;-47
2023/06/16 21:42:55;;;;;;;1.52;1.40;;;;;;;14.13;100.00;98363.09;15283325;19;20763;-50
2023/06/16 21:48:20;;;;;;;1.75;1.42;;;;;;;14.13;100.00;98357.69;15294762;19;20031;-47
2023/06/16 21:53:48;;;;;;;2.22;1.50;;;;;;;14.12;100.00;98368.69;15291874;19;20014;-42
2023/06/16 21:59:19;;;;;;;3.80;1.40;;;;;;;14.14;100.00;98355.81;15289439;19;20634;-48
2023/06/16 22:04:45;;;;;;;1.88;1.60;;;;;;;14.13;100.00;98349.56;15289283;19;20010;-46
2023/06/16 22:10:13;;;;;;;2.38;1.60;;;;;;;14.08;100.00;98357.38;15281223;19;20014;-48
2023/06/16 22:15:37;;;;;;;4.32;1.60;;;;;;;14.05;100.00;98357.78;15285142;19;20033;-47
2023/06/16 22:21:02;;;;;;;3.70;1.70;;;;;;;14.01;100.00;98357.28;15289966;19;20533;-47
2023/06/16 22:26:32;;;;;;;1.80;1.50;;;;;;;13.98;100.00;98363.09;15286594;19;20010;-49
2023/06/16 22:31:57;;;;;;;1.70;1.60;;;;;;;13.97;100.00;98365.97;15291363;19;20012;-47
2023/06/16 22:37:21;;;;;;;3.28;1.45;;;;;;;13.98;100.00;98362.22;15284026;19;20015;-45
2023/06/16 22:42:49;;;;;;;2.92;1.60;;;;;;;14.01;100.00;98356.47;15278788;19;20022;-46
2023/06/16 22:48:14;;;;;;;1.70;1.60;;;;;;;13.97;100.00;98361.41;15289711;19;20017;-43
2023/06/16 22:53:40;;;;;;;1.73;1.40;;;;;;;13.94;100.00;98344.66;15285167;19;20022;-45
2023/06/16 22:59:15;;;;;;;1.50;1.40;;;;;;;13.94;100.00;98350.06;15282559;19;20359;-45
2023/06/16 23:04:40;;;;;;;2.13;1.60;;;;;;;13.94;100.00;98347.38;15284104;19;20026;-45
2023/06/16 23:10:05;;;;;;;2.10;1.70;;;;;;;13.94;100.00;98341.94;15285829;19;20021;-45
2023/06/16 23:15:32;;;;;;;1.85;1.70;;;;;;;13.95;100.00;98351.75;15273423;19;20016;-45
2023/06/16 23:20:57;;;;;;;2.08;1.80;;;;;;;13.92;100.00;98352.16;15286998;19;20037;-47
2023/06/16 23:26:22;;;;;;;2.63;1.60;;;;;;;13.91;100.00;98350.47;15278555;19;20371;-44
2023/06/16 23:31:50;;;;;;;1.85;1.63;;;;;;;13.89;100.00;98352.50;15283904;19;20021;-47
2023/06/16 23:37:15;;;;;;;1.77;1.52;;;;;;;13.86;100.00;98343.72;15280479;19;20030;-46
2023/06/16 23:42:40;;;;;;;1.63;1.52;;;;;;;13.86;100.00;98351.84;15282740;19;20010;-45
2023/06/16 23:48:11;;;;;;;1.80;1.70;;;;;;;13.86;100.00;98343.72;15275683;19;20015;-45
2023/06/16 23:53:36;;;;;;;2.23;1.60;;;;;;;13.86;100.00;98319.34;15282353;19;20014;-44
2023/06/16 23:59:07;;;;;;;2.13;1.65;;;;;;;13.89;100.00;98320.03;15279569;19;20319;-44
